sensor_id;sensor_type;location;lat;lon;timestamp;P1;durP1;ratioP1;P2;durP2;ratioP2
18580;SDS011;9420;50.876;7.012;2023-11-22T00:02:16;12.07;;;7.80;;
18580;SDS011;9420;50.876;7.012;2023-11-22T00:04:43;8.03;;;6.40;;
18580;SDS011;9420;50.876;7.012;2023-11-22T00:07:09;9.30;;;7.43;;
18580;SDS011;9420;50.876;7.012;2023-11-22T00:09:37;10.17;;;7.40;;
18580;SDS011;9420;50.876;7.012;2023-11-22T00:12:04;12.27;;;8.50;;
18580;SDS011;9420;50.876;7.012;2023-11-22T00:14:31;12.57;;;7.70;;
18580;SDS011;9420;50.876;7.012;2023-11-22T00:16:58;10.40;;;8.37;;
18580;SDS011;9420;50.876;7.012;2023-11-22T00:19:28;13.37;;;8.87;;
18580;SDS011;9420;50.876;7.012;2023-11-22T00:21:55;13.13;;;9.20;;
18580;SDS011;9420;50.876;7.012;2023-11-22T00:24:22;13.50;;;8.93;;
18580;SDS011;9420;50.876;7.012;2023-11-22T00:26:48;13.03;;;8.87;;
18580;SDS011;9420;50.876;7.012;2023-11-22T00:29:15;13.17;;;9.83;;
18580;SDS011;9420;50.876;7.012;2023-11-22T00:31:41;12.90;;;9.53;;
18580;SDS011;9420;50.876;7.012;2023-11-22T00:34:09;14.77;;;10.00;;
18580;SDS011;9420;50.876;7.012;2023-11-22T00:36:37;14.63;;;10.93;;
18580;SDS011;9420;50.876;7.012;2023-11-22T00:39:04;14.33;;;10.77;;
18580;SDS011;9420;50.876;7.012;2023-11-22T00:41:30;15.00;;;9.20;;
18580;SDS011;9420;50.876;7.012;2023-11-22T00:43:57;13.33;;;10.63;;
18580;SDS011;9420;50.876;7.012;2023-11-22T00:46:24;14.33;;;10.20;;
18580;SDS011;9420;50.876;7.012;2023-11-22T00:48:50;14.90;;;10.60;;
18580;SDS011;9420;50.876;7.012;2023-11-22T00:51:17;15.50;;;10.60;;
18580;SDS011;9420;50.876;7.012;2023-11-22T00:53:46;16.60;;;10.37;;
18580;SDS011;9420;50.876;7.012;2023-11-22T00:56:12;13.40;;;9.80;;
18580;SDS011;9420;50.876;7.012;2023-11-22T00:58:39;14.13;;;9.93;;
18580;SDS011;9420;50.876;7.012;2023-11-22T01:01:05;14.60;;;9.20;;
18580;SDS011;9420;50.876;7.012;2023-11-22T01:03:33;11.93;;;9.57;;
18580;SDS011;9420;50.876;7.012;2023-11-22T01:06:00;15.33;;;9.87;;
18580;SDS011;9420;50.876;7.012;2023-11-22T01:08:27;13.00;;;9.00;;
18580;SDS011;9420;50.876;7.012;2023-11-22T01:10:55;13.30;;;10.63;;
18580;SDS011;9420;50.876;7.012;2023-11-22T01:13:22;15.20;;;9.73;;
18580;SDS011;9420;50.876;7.012;2023-11-22T01:15:49;15.50;;;10.67;;
18580;SDS011;9420;50.876;7.012;2023-11-22T01:18:16;12.97;;;10.13;;
18580;SDS011;9420;50.876;7.012;2023-11-22T01:20:42;16.27;;;10.57;;
18580;SDS011;9420;50.876;7.012;2023-11-22T01:23:10;15.03;;;9.90;;
18580;SDS011;9420;50.876;7.012;2023-11-22T01:25:36;15.40;;;9.83;;
18580;SDS011;9420;50.876;7.012;2023-11-22T01:28:04;17.13;;;9.90;;
18580;SDS011;9420;50.876;7.012;2023-11-22T01:30:31;13.53;;;8.90;;
18580;SDS011;9420;50.876;7.012;2023-11-22T01:32:58;15.63;;;10.07;;
18580;SDS011;9420;50.876;7.012;2023-11-22T01:35:25;18.50;;;9.87;;
18580;SDS011;9420;50.876;7.012;2023-11-22T01:37:51;12.77;;;8.43;;
18580;SDS011;9420;50.876;7.012;2023-11-22T01:40:18;16.70;;;9.83;;
18580;SDS011;9420;50.876;7.012;2023-11-22T01:42:45;12.73;;;9.03;;
18580;SDS011;9420;50.876;7.012;2023-11-22T01:45:13;19.67;;;10.40;;
18580;SDS011;9420;50.876;7.012;2023-11-22T01:47:40;23.60;;;10.93;;
18580;SDS011;9420;50.876;7.012;2023-11-22T01:50:07;16.10;;;10.27;;
18580;SDS011;9420;50.876;7.012;2023-11-22T01:52:35;14.63;;;10.03;;
18580;SDS011;9420;50.876;7.012;2023-11-22T01:55:02;17.57;;;10.60;;
18580;SDS011;9420;50.876;7.012;2023-11-22T01:57:30;18.10;;;9.70;;
18580;SDS011;9420;50.876;7.012;2023-11-22T01:59:58;15.23;;;9.70;;
18580;SDS011;9420;50.876;7.012;2023-11-22T02:02:27;13.50;;;9.40;;
18580;SDS011;9420;50.876;7.012;2023-11-22T02:04:54;22.93;;;9.63;;
18580;SDS011;9420;50.876;7.012;2023-11-22T02:07:20;14.87;;;9.57;;
18580;SDS011;9420;50.876;7.012;2023-11-22T02:09:47;16.57;;;10.17;;
18580;SDS011;9420;50.876;7.012;2023-11-22T02:12:14;17.50;;;10.63;;
18580;SDS011;9420;50.876;7.012;2023-11-22T02:14:41;13.03;;;9.87;;
18580;SDS011;9420;50.876;7.012;2023-11-22T02:17:07;17.60;;;10.23;;
18580;SDS011;9420;50.876;7.012;2023-11-22T02:19:36;18.70;;;11.03;;
18580;SDS011;9420;50.876;7.012;2023-11-22T02:22:03;16.70;;;11.33;;
18580;SDS011;9420;50.876;7.012;2023-11-22T02:24:31;15.87;;;10.83;;
18580;SDS011;9420;50.876;7.012;2023-11-22T02:26:59;16.67;;;11.07;;
18580;SDS011;9420;50.876;7.012;2023-11-22T02:29:25;17.70;;;11.13;;
18580;SDS011;9420;50.876;7.012;2023-11-22T02:31:52;15.97;;;11.00;;
18580;SDS011;9420;50.876;7.012;2023-11-22T02:34:19;15.60;;;10.17;;
18580;SDS011;9420;50.876;7.012;2023-11-22T02:36:45;14.90;;;10.50;;
18580;SDS011;9420;50.876;7.012;2023-11-22T02:39:12;14.53;;;10.20;;
18580;SDS011;9420;50.876;7.012;2023-11-22T02:41:40;15.30;;;11.53;;
18580;SDS011;9420;50.876;7.012;2023-11-22T02:44:07;18.00;;;11.77;;
18580;SDS011;9420;50.876;7.012;2023-11-22T02:46:34;14.63;;;10.77;;
18580;SDS011;9420;50.876;7.012;2023-11-22T02:49:00;17.83;;;11.50;;
18580;SDS011;9420;50.876;7.012;2023-11-22T02:51:27;17.07;;;10.80;;
18580;SDS011;9420;50.876;7.012;2023-11-22T02:53:53;21.30;;;10.73;;
18580;SDS011;9420;50.876;7.012;2023-11-22T02:56:20;16.60;;;10.57;;
18580;SDS011;9420;50.876;7.012;2023-11-22T02:58:48;15.77;;;10.77;;
18580;SDS011;9420;50.876;7.012;2023-11-22T03:01:15;16.47;;;10.83;;
18580;SDS011;9420;50.876;7.012;2023-11-22T03:03:41;17.33;;;11.53;;
18580;SDS011;9420;50.876;7.012;2023-11-22T03:06:08;16.23;;;10.20;;
18580;SDS011;9420;50.876;7.012;2023-11-22T03:08:35;16.23;;;10.93;;
18580;SDS011;9420;50.876;7.012;2023-11-22T03:11:01;15.40;;;10.47;;
18580;SDS011;9420;50.876;7.012;2023-11-22T03:13:28;16.13;;;10.57;;
18580;SDS011;9420;50.876;7.012;2023-11-22T03:15:56;14.40;;;10.20;;
18580;SDS011;9420;50.876;7.012;2023-11-22T03:18:23;17.93;;;12.47;;
18580;SDS011;9420;50.876;7.012;2023-11-22T03:20:51;12.70;;;9.93;;
18580;SDS011;9420;50.876;7.012;2023-11-22T03:23:19;15.03;;;9.97;;
18580;SDS011;9420;50.876;7.012;2023-11-22T03:25:46;13.20;;;9.67;;
18580;SDS011;9420;50.876;7.012;2023-11-22T03:28:13;13.30;;;10.00;;
18580;SDS011;9420;50.876;7.012;2023-11-22T03:30:39;14.17;;;10.27;;
18580;SDS011;9420;50.876;7.012;2023-11-22T03:33:08;14.43;;;10.13;;
18580;SDS011;9420;50.876;7.012;2023-11-22T03:35:34;14.40;;;10.43;;
18580;SDS011;9420;50.876;7.012;2023-11-22T03:38:01;14.27;;;9.80;;
18580;SDS011;9420;50.876;7.012;2023-11-22T03:40:28;11.97;;;8.67;;
18580;SDS011;9420;50.876;7.012;2023-11-22T03:42:55;12.47;;;9.50;;
18580;SDS011;9420;50.876;7.012;2023-11-22T03:45:21;11.57;;;9.10;;
18580;SDS011;9420;50.876;7.012;2023-11-22T03:47:48;12.63;;;9.43;;
18580;SDS011;9420;50.876;7.012;2023-11-22T03:50:16;13.53;;;10.37;;
18580;SDS011;9420;50.876;7.012;2023-11-22T03:52:42;11.70;;;9.00;;
18580;SDS011;9420;50.876;7.012;2023-11-22T03:55:09;11.87;;;9.17;;
18580;SDS011;9420;50.876;7.012;2023-11-22T03:57:35;13.27;;;10.07;;
18580;SDS011;9420;50.876;7.012;2023-11-22T04:00:02;12.93;;;9.20;;
18580;SDS011;9420;50.876;7.012;2023-11-22T04:02:31;15.57;;;9.63;;
18580;SDS011;9420;50.876;7.012;2023-11-22T04:04:58;14.00;;;9.93;;
18580;SDS011;9420;50.876;7.012;2023-11-22T04:07:26;12.30;;;8.33;;
18580;SDS011;9420;50.876;7.012;2023-11-22T04:09:52;14.50;;;9.40;;
18580;SDS011;9420;50.876;7.012;2023-11-22T04:12:20;12.93;;;8.83;;
18580;SDS011;9420;50.876;7.012;2023-11-22T04:14:47;14.57;;;8.40;;
18580;SDS011;9420;50.876;7.012;2023-11-22T04:17:14;11.70;;;8.67;;
18580;SDS011;9420;50.876;7.012;2023-11-22T04:19:41;13.70;;;9.43;;
18580;SDS011;9420;50.876;7.012;2023-11-22T04:22:08;13.07;;;9.07;;
18580;SDS011;9420;50.876;7.012;2023-11-22T04:24:37;13.60;;;9.13;;
18580;SDS011;9420;50.876;7.012;2023-11-22T04:27:04;15.47;;;9.97;;
18580;SDS011;9420;50.876;7.012;2023-11-22T04:29:31;13.60;;;9.67;;
18580;SDS011;9420;50.876;7.012;2023-11-22T04:31:57;10.97;;;8.27;;
18580;SDS011;9420;50.876;7.012;2023-11-22T04:34:24;11.73;;;7.97;;
18580;SDS011;9420;50.876;7.012;2023-11-22T04:36:50;13.77;;;8.37;;
18580;SDS011;9420;50.876;7.012;2023-11-22T04:39:17;18.43;;;9.17;;
18580;SDS011;9420;50.876;7.012;2023-11-22T04:41:45;15.13;;;9.73;;
18580;SDS011;9420;50.876;7.012;2023-11-22T04:44:12;15.03;;;8.77;;
18580;SDS011;9420;50.876;7.012;2023-11-22T04:46:39;17.50;;;10.13;;
18580;SDS011;9420;50.876;7.012;2023-11-22T04:49:05;14.30;;;9.57;;
18580;SDS011;9420;50.876;7.012;2023-11-22T04:51:32;13.77;;;10.20;;
18580;SDS011;9420;50.876;7.012;2023-11-22T04:53:59;12.53;;;8.77;;
18580;SDS011;9420;50.876;7.012;2023-11-22T04:56:26;12.03;;;9.00;;
18580;SDS011;9420;50.876;7.012;2023-11-22T04:58:54;12.97;;;9.63;;
18580;SDS011;9420;50.876;7.012;2023-11-22T05:01:21;13.07;;;9.93;;
18580;SDS011;9420;50.876;7.012;2023-11-22T05:03:48;12.03;;;9.43;;
18580;SDS011;9420;50.876;7.012;2023-11-22T05:06:14;11.63;;;9.40;;
18580;SDS011;9420;50.876;7.012;2023-11-22T05:08:42;14.97;;;10.13;;
18580;SDS011;9420;50.876;7.012;2023-11-22T05:11:08;11.47;;;9.50;;
18580;SDS011;9420;50.876;7.012;2023-11-22T05:13:35;15.07;;;10.20;;
18580;SDS011;9420;50.876;7.012;2023-11-22T05:16:03;14.27;;;10.43;;
18580;SDS011;9420;50.876;7.012;2023-11-22T05:18:30;15.20;;;9.77;;
18580;SDS011;9420;50.876;7.012;2023-11-22T05:20:57;20.63;;;10.10;;
18580;SDS011;9420;50.876;7.012;2023-11-22T05:23:23;13.00;;;9.63;;
18580;SDS011;9420;50.876;7.012;2023-11-22T05:25:50;19.93;;;10.17;;
18580;SDS011;9420;50.876;7.012;2023-11-22T05:28:17;15.67;;;9.77;;
18580;SDS011;9420;50.876;7.012;2023-11-22T05:30:43;16.17;;;10.37;;
18580;SDS011;9420;50.876;7.012;2023-11-22T05:33:11;16.40;;;10.67;;
18580;SDS011;9420;50.876;7.012;2023-11-22T05:35:38;14.80;;;10.00;;
18580;SDS011;9420;50.876;7.012;2023-11-22T05:38:05;13.53;;;10.10;;
18580;SDS011;9420;50.876;7.012;2023-11-22T05:40:32;17.27;;;10.63;;
18580;SDS011;9420;50.876;7.012;2023-11-22T05:42:59;14.23;;;10.43;;
18580;SDS011;9420;50.876;7.012;2023-11-22T05:45:26;15.03;;;10.50;;
18580;SDS011;9420;50.876;7.012;2023-11-22T05:47:52;15.17;;;11.57;;
18580;SDS011;9420;50.876;7.012;2023-11-22T05:50:20;16.23;;;10.40;;
18580;SDS011;9420;50.876;7.012;2023-11-22T05:52:47;16.73;;;10.27;;
18580;SDS011;9420;50.876;7.012;2023-11-22T05:55:13;15.97;;;10.80;;
18580;SDS011;9420;50.876;7.012;2023-11-22T05:57:40;16.10;;;10.23;;
18580;SDS011;9420;50.876;7.012;2023-11-22T06:00:07;14.43;;;9.87;;
18580;SDS011;9420;50.876;7.012;2023-11-22T06:02:34;14.33;;;9.77;;
18580;SDS011;9420;50.876;7.012;2023-11-22T06:05:02;12.50;;;9.17;;
18580;SDS011;9420;50.876;7.012;2023-11-22T06:07:30;13.43;;;8.10;;
18580;SDS011;9420;50.876;7.012;2023-11-22T06:09:57;10.90;;;8.60;;
18580;SDS011;9420;50.876;7.012;2023-11-22T06:12:24;12.23;;;8.13;;
18580;SDS011;9420;50.876;7.012;2023-11-22T06:14:50;11.30;;;7.70;;
18580;SDS011;9420;50.876;7.012;2023-11-22T06:17:17;14.77;;;8.03;;
18580;SDS011;9420;50.876;7.012;2023-11-22T06:19:44;12.23;;;7.43;;
18580;SDS011;9420;50.876;7.012;2023-11-22T06:22:11;11.07;;;8.27;;
18580;SDS011;9420;50.876;7.012;2023-11-22T06:24:39;11.83;;;8.00;;
18580;SDS011;9420;50.876;7.012;2023-11-22T06:27:06;12.63;;;7.93;;
18580;SDS011;9420;50.876;7.012;2023-11-22T06:29:32;13.00;;;8.87;;
18580;SDS011;9420;50.876;7.012;2023-11-22T06:31:59;14.50;;;7.97;;
18580;SDS011;9420;50.876;7.012;2023-11-22T06:34:26;15.40;;;8.60;;
18580;SDS011;9420;50.876;7.012;2023-11-22T06:36:52;14.40;;;8.70;;
18580;SDS011;9420;50.876;7.012;2023-11-22T06:39:19;10.53;;;7.40;;
18580;SDS011;9420;50.876;7.012;2023-11-22T06:41:49;9.30;;;6.90;;
18580;SDS011;9420;50.876;7.012;2023-11-22T06:44:15;11.70;;;7.80;;
18580;SDS011;9420;50.876;7.012;2023-11-22T06:46:42;10.90;;;7.43;;
18580;SDS011;9420;50.876;7.012;2023-11-22T06:49:09;10.00;;;7.43;;
18580;SDS011;9420;50.876;7.012;2023-11-22T06:51:35;15.53;;;7.17;;
18580;SDS011;9420;50.876;7.012;2023-11-22T06:54:02;9.27;;;7.10;;
18580;SDS011;9420;50.876;7.012;2023-11-22T06:56:29;9.47;;;6.10;;
18580;SDS011;9420;50.876;7.012;2023-11-22T06:58:57;10.57;;;6.57;;
18580;SDS011;9420;50.876;7.012;2023-11-22T07:01:23;10.03;;;7.17;;
18580;SDS011;9420;50.876;7.012;2023-11-22T07:03:51;10.27;;;6.90;;
18580;SDS011;9420;50.876;7.012;2023-11-22T07:06:18;12.53;;;8.30;;
18580;SDS011;9420;50.876;7.012;2023-11-22T07:08:47;10.67;;;7.20;;
18580;SDS011;9420;50.876;7.012;2023-11-22T07:11:20;11.10;;;7.07;;
18580;SDS011;9420;50.876;7.012;2023-11-22T07:13:48;13.60;;;6.87;;
18580;SDS011;9420;50.876;7.012;2023-11-22T07:16:16;10.93;;;7.30;;
18580;SDS011;9420;50.876;7.012;2023-11-22T07:18:43;12.03;;;7.90;;
18580;SDS011;9420;50.876;7.012;2023-11-22T07:21:10;11.67;;;8.27;;
18580;SDS011;9420;50.876;7.012;2023-11-22T07:23:36;12.27;;;6.87;;
18580;SDS011;9420;50.876;7.012;2023-11-22T07:26:03;11.47;;;7.80;;
18580;SDS011;9420;50.876;7.012;2023-11-22T07:28:31;10.40;;;8.10;;
18580;SDS011;9420;50.876;7.012;2023-11-22T07:30:57;11.67;;;7.30;;
18580;SDS011;9420;50.876;7.012;2023-11-22T07:33:26;11.70;;;7.80;;
18580;SDS011;9420;50.876;7.012;2023-11-22T07:35:52;14.27;;;6.90;;
18580;SDS011;9420;50.876;7.012;2023-11-22T07:38:19;9.53;;;6.73;;
18580;SDS011;9420;50.876;7.012;2023-11-22T07:40:46;8.10;;;5.40;;
18580;SDS011;9420;50.876;7.012;2023-11-22T07:43:13;10.73;;;6.63;;
18580;SDS011;9420;50.876;7.012;2023-11-22T07:45:40;11.30;;;6.80;;
18580;SDS011;9420;50.876;7.012;2023-11-22T07:48:06;8.80;;;5.50;;
18580;SDS011;9420;50.876;7.012;2023-11-22T07:50:38;9.83;;;6.70;;
18580;SDS011;9420;50.876;7.012;2023-11-22T07:53:08;10.67;;;6.67;;
18580;SDS011;9420;50.876;7.012;2023-11-22T07:55:36;11.40;;;7.37;;
18580;SDS011;9420;50.876;7.012;2023-11-22T07:58:03;8.77;;;7.17;;
18580;SDS011;9420;50.876;7.012;2023-11-22T08:00:31;8.87;;;6.67;;
18580;SDS011;9420;50.876;7.012;2023-11-22T08:02:59;10.67;;;7.20;;
18580;SDS011;9420;50.876;7.012;2023-11-22T08:05:27;11.73;;;7.43;;
18580;SDS011;9420;50.876;7.012;2023-11-22T08:07:55;15.23;;;7.13;;
18580;SDS011;9420;50.876;7.012;2023-11-22T08:10:22;11.30;;;6.73;;
18580;SDS011;9420;50.876;7.012;2023-11-22T08:12:50;13.53;;;6.83;;
18580;SDS011;9420;50.876;7.012;2023-11-22T08:15:17;13.13;;;7.10;;
18580;SDS011;9420;50.876;7.012;2023-11-22T08:17:44;10.10;;;6.30;;
18580;SDS011;9420;50.876;7.012;2023-11-22T08:20:11;13.30;;;6.83;;
18580;SDS011;9420;50.876;7.012;2023-11-22T08:22:38;11.40;;;6.90;;
18580;SDS011;9420;50.876;7.012;2023-11-22T08:25:08;9.07;;;6.20;;
18580;SDS011;9420;50.876;7.012;2023-11-22T08:27:37;12.10;;;6.43;;
18580;SDS011;9420;50.876;7.012;2023-11-22T08:30:05;8.60;;;6.30;;
18580;SDS011;9420;50.876;7.012;2023-11-22T08:32:38;11.27;;;5.13;;
18580;SDS011;9420;50.876;7.012;2023-11-22T08:35:09;9.73;;;5.73;;
18580;SDS011;9420;50.876;7.012;2023-11-22T08:37:39;11.20;;;6.20;;
18580;SDS011;9420;50.876;7.012;2023-11-22T08:40:08;11.77;;;6.73;;
18580;SDS011;9420;50.876;7.012;2023-11-22T08:42:36;8.90;;;5.83;;
18580;SDS011;9420;50.876;7.012;2023-11-22T08:45:03;10.83;;;6.13;;
18580;SDS011;9420;50.876;7.012;2023-11-22T08:47:30;8.83;;;5.90;;
18580;SDS011;9420;50.876;7.012;2023-11-22T08:49:58;10.70;;;6.17;;
18580;SDS011;9420;50.876;7.012;2023-11-22T08:52:25;7.53;;;5.40;;
18580;SDS011;9420;50.876;7.012;2023-11-22T08:54:52;10.50;;;5.40;;
18580;SDS011;9420;50.876;7.012;2023-11-22T08:57:20;10.17;;;5.33;;
18580;SDS011;9420;50.876;7.012;2023-11-22T08:59:46;8.23;;;5.50;;
18580;SDS011;9420;50.876;7.012;2023-11-22T09:02:13;5.50;;;4.63;;
18580;SDS011;9420;50.876;7.012;2023-11-22T09:04:40;7.23;;;4.77;;
18580;SDS011;9420;50.876;7.012;2023-11-22T09:07:08;7.33;;;4.50;;
18580;SDS011;9420;50.876;7.012;2023-11-22T09:09:35;7.83;;;4.50;;
18580;SDS011;9420;50.876;7.012;2023-11-22T09:12:02;5.50;;;4.47;;
18580;SDS011;9420;50.876;7.012;2023-11-22T09:14:31;8.90;;;4.90;;
18580;SDS011;9420;50.876;7.012;2023-11-22T09:16:58;6.37;;;3.87;;
18580;SDS011;9420;50.876;7.012;2023-11-22T09:19:26;7.70;;;4.00;;
18580;SDS011;9420;50.876;7.012;2023-11-22T09:21:53;5.73;;;4.07;;
18580;SDS011;9420;50.876;7.012;2023-11-22T09:24:20;5.03;;;3.57;;
18580;SDS011;9420;50.876;7.012;2023-11-22T09:26:46;6.27;;;3.90;;
18580;SDS011;9420;50.876;7.012;2023-11-22T09:29:13;6.60;;;3.43;;
18580;SDS011;9420;50.876;7.012;2023-11-22T09:31:41;5.60;;;3.87;;
18580;SDS011;9420;50.876;7.012;2023-11-22T09:34:08;6.40;;;3.27;;
18580;SDS011;9420;50.876;7.012;2023-11-22T09:36:36;4.97;;;3.00;;
18580;SDS011;9420;50.876;7.012;2023-11-22T09:39:03;3.77;;;3.20;;
18580;SDS011;9420;50.876;7.012;2023-11-22T09:41:33;4.47;;;3.13;;
18580;SDS011;9420;50.876;7.012;2023-11-22T09:44:00;8.90;;;3.43;;
18580;SDS011;9420;50.876;7.012;2023-11-22T09:46:27;4.43;;;2.90;;
18580;SDS011;9420;50.876;7.012;2023-11-22T09:48:57;5.20;;;3.47;;
18580;SDS011;9420;50.876;7.012;2023-11-22T09:51:24;4.90;;;3.47;;
18580;SDS011;9420;50.876;7.012;2023-11-22T09:53:55;7.90;;;3.10;;
18580;SDS011;9420;50.876;7.012;2023-11-22T09:56:24;3.43;;;2.70;;
18580;SDS011;9420;50.876;7.012;2023-11-22T09:58:51;4.17;;;3.03;;
18580;SDS011;9420;50.876;7.012;2023-11-22T10:01:21;6.30;;;3.37;;
18580;SDS011;9420;50.876;7.012;2023-11-22T10:03:48;5.37;;;3.37;;
18580;SDS011;9420;50.876;7.012;2023-11-22T10:06:17;4.67;;;3.00;;
18580;SDS011;9420;50.876;7.012;2023-11-22T10:08:44;4.13;;;3.23;;
18580;SDS011;9420;50.876;7.012;2023-11-22T10:11:12;4.43;;;3.00;;
18580;SDS011;9420;50.876;7.012;2023-11-22T10:13:43;3.17;;;2.50;;
18580;SDS011;9420;50.876;7.012;2023-11-22T10:16:11;3.50;;;2.83;;
18580;SDS011;9420;50.876;7.012;2023-11-22T10:18:41;3.30;;;2.73;;
18580;SDS011;9420;50.876;7.012;2023-11-22T10:21:20;4.43;;;2.33;;
18580;SDS011;9420;50.876;7.012;2023-11-22T10:23:49;6.10;;;2.20;;
18580;SDS011;9420;50.876;7.012;2023-11-22T10:26:17;2.83;;;2.33;;
18580;SDS011;9420;50.876;7.012;2023-11-22T10:28:44;4.17;;;2.33;;
18580;SDS011;9420;50.876;7.012;2023-11-22T10:31:11;4.63;;;2.67;;
18580;SDS011;9420;50.876;7.012;2023-11-22T10:33:39;4.77;;;2.30;;
18580;SDS011;9420;50.876;7.012;2023-11-22T10:36:07;4.90;;;2.03;;
18580;SDS011;9420;50.876;7.012;2023-11-22T10:38:35;5.87;;;2.80;;
18580;SDS011;9420;50.876;7.012;2023-11-22T10:41:03;11.70;;;2.40;;
18580;SDS011;9420;50.876;7.012;2023-11-22T10:43:30;2.70;;;1.80;;
18580;SDS011;9420;50.876;7.012;2023-11-22T10:46:00;5.17;;;2.40;;
18580;SDS011;9420;50.876;7.012;2023-11-22T10:48:28;3.43;;;2.17;;
18580;SDS011;9420;50.876;7.012;2023-11-22T10:50:56;4.63;;;2.17;;
18580;SDS011;9420;50.876;7.012;2023-11-22T10:53:28;2.50;;;1.63;;
18580;SDS011;9420;50.876;7.012;2023-11-22T10:56:02;4.87;;;2.03;;
18580;SDS011;9420;50.876;7.012;2023-11-22T10:58:32;3.50;;;2.53;;
18580;SDS011;9420;50.876;7.012;2023-11-22T11:01:00;1.87;;;1.60;;
18580;SDS011;9420;50.876;7.012;2023-11-22T11:03:32;2.23;;;1.53;;
18580;SDS011;9420;50.876;7.012;2023-11-22T11:06:05;4.00;;;1.80;;
18580;SDS011;9420;50.876;7.012;2023-11-22T11:08:38;2.53;;;1.70;;
18580;SDS011;9420;50.876;7.012;2023-11-22T11:11:07;2.77;;;1.70;;
18580;SDS011;9420;50.876;7.012;2023-11-22T11:13:34;2.43;;;1.93;;
18580;SDS011;9420;50.876;7.012;2023-11-22T11:16:00;3.80;;;2.03;;
18580;SDS011;9420;50.876;7.012;2023-11-22T11:18:28;3.20;;;2.30;;
18580;SDS011;9420;50.876;7.012;2023-11-22T11:20:55;3.47;;;2.60;;
18580;SDS011;9420;50.876;7.012;2023-11-22T11:23:23;2.83;;;1.90;;
18580;SDS011;9420;50.876;7.012;2023-11-22T11:25:52;5.40;;;2.20;;
18580;SDS011;9420;50.876;7.012;2023-11-22T11:28:21;2.70;;;2.10;;
18580;SDS011;9420;50.876;7.012;2023-11-22T11:30:50;2.20;;;2.00;;
18580;SDS011;9420;50.876;7.012;2023-11-22T11:33:18;2.23;;;1.53;;
18580;SDS011;9420;50.876;7.012;2023-11-22T11:35:52;4.57;;;2.03;;
18580;SDS011;9420;50.876;7.012;2023-11-22T11:38:26;3.67;;;2.23;;
18580;SDS011;9420;50.876;7.012;2023-11-22T11:41:00;2.50;;;2.13;;
18580;SDS011;9420;50.876;7.012;2023-11-22T11:43:40;2.77;;;2.00;;
18580;SDS011;9420;50.876;7.012;2023-11-22T11:46:07;2.60;;;1.40;;
18580;SDS011;9420;50.876;7.012;2023-11-22T11:48:34;3.37;;;1.90;;
18580;SDS011;9420;50.876;7.012;2023-11-22T11:51:01;3.43;;;2.23;;
18580;SDS011;9420;50.876;7.012;2023-11-22T11:53:28;2.93;;;1.80;;
18580;SDS011;9420;50.876;7.012;2023-11-22T11:55:56;3.80;;;1.60;;
18580;SDS011;9420;50.876;7.012;2023-11-22T11:58:24;4.40;;;2.03;;
18580;SDS011;9420;50.876;7.012;2023-11-22T12:00:52;1.97;;;1.37;;
18580;SDS011;9420;50.876;7.012;2023-11-22T12:03:20;5.43;;;2.20;;
18580;SDS011;9420;50.876;7.012;2023-11-22T12:05:47;2.20;;;1.80;;
18580;SDS011;9420;50.876;7.012;2023-11-22T12:08:14;3.90;;;1.90;;
18580;SDS011;9420;50.876;7.012;2023-11-22T12:10:44;3.97;;;1.43;;
18580;SDS011;9420;50.876;7.012;2023-11-22T12:13:13;3.63;;;1.90;;
18580;SDS011;9420;50.876;7.012;2023-11-22T12:15:43;2.17;;;1.53;;
18580;SDS011;9420;50.876;7.012;2023-11-22T12:18:11;1.27;;;1.17;;
18580;SDS011;9420;50.876;7.012;2023-11-22T12:20:38;2.23;;;1.33;;
18580;SDS011;9420;50.876;7.012;2023-11-22T12:23:05;2.80;;;1.30;;
18580;SDS011;9420;50.876;7.012;2023-11-22T12:25:33;2.53;;;1.50;;
18580;SDS011;9420;50.876;7.012;2023-11-22T12:27:59;3.10;;;1.50;;
18580;SDS011;9420;50.876;7.012;2023-11-22T12:30:30;4.10;;;1.77;;
18580;SDS011;9420;50.876;7.012;2023-11-22T12:33:00;3.43;;;1.30;;
18580;SDS011;9420;50.876;7.012;2023-11-22T12:35:29;2.43;;;1.63;;
18580;SDS011;9420;50.876;7.012;2023-11-22T12:37:58;3.10;;;1.93;;
18580;SDS011;9420;50.876;7.012;2023-11-22T12:40:26;2.53;;;1.77;;
18580;SDS011;9420;50.876;7.012;2023-11-22T12:42:56;3.73;;;1.90;;
18580;SDS011;9420;50.876;7.012;2023-11-22T12:45:24;3.40;;;1.60;;
18580;SDS011;9420;50.876;7.012;2023-11-22T12:47:54;4.03;;;1.40;;
18580;SDS011;9420;50.876;7.012;2023-11-22T12:50:35;5.60;;;1.77;;
18580;SDS011;9420;50.876;7.012;2023-11-22T12:53:07;1.93;;;1.33;;
18580;SDS011;9420;50.876;7.012;2023-11-22T12:55:35;1.90;;;1.50;;
18580;SDS011;9420;50.876;7.012;2023-11-22T12:58:02;2.33;;;1.17;;
18580;SDS011;9420;50.876;7.012;2023-11-22T13:00:29;2.03;;;1.60;;
18580;SDS011;9420;50.876;7.012;2023-11-22T13:02:56;3.03;;;1.57;;
18580;SDS011;9420;50.876;7.012;2023-11-22T13:05:22;3.93;;;1.40;;
18580;SDS011;9420;50.876;7.012;2023-11-22T13:07:51;2.97;;;1.73;;
18580;SDS011;9420;50.876;7.012;2023-11-22T13:10:20;2.13;;;1.33;;
18580;SDS011;9420;50.876;7.012;2023-11-22T13:12:50;1.93;;;1.30;;
18580;SDS011;9420;50.876;7.012;2023-11-22T13:15:18;3.60;;;1.30;;
18580;SDS011;9420;50.876;7.012;2023-11-22T13:17:48;1.87;;;1.10;;
18580;SDS011;9420;50.876;7.012;2023-11-22T13:20:15;2.73;;;1.40;;
18580;SDS011;9420;50.876;7.012;2023-11-22T13:22:45;2.30;;;1.43;;
18580;SDS011;9420;50.876;7.012;2023-11-22T13:25:13;1.87;;;1.30;;
18580;SDS011;9420;50.876;7.012;2023-11-22T13:27:41;2.23;;;1.07;;
18580;SDS011;9420;50.876;7.012;2023-11-22T13:30:08;2.00;;;1.30;;
18580;SDS011;9420;50.876;7.012;2023-11-22T13:32:35;3.90;;;1.30;;
18580;SDS011;9420;50.876;7.012;2023-11-22T13:35:04;1.47;;;1.17;;
18580;SDS011;9420;50.876;7.012;2023-11-22T13:37:37;3.37;;;1.80;;
18580;SDS011;9420;50.876;7.012;2023-11-22T13:40:07;2.10;;;1.37;;
18580;SDS011;9420;50.876;7.012;2023-11-22T13:42:40;3.47;;;1.67;;
18580;SDS011;9420;50.876;7.012;2023-11-22T13:45:09;2.30;;;1.27;;
18580;SDS011;9420;50.876;7.012;2023-11-22T13:47:36;2.43;;;1.43;;
18580;SDS011;9420;50.876;7.012;2023-11-22T13:50:03;5.37;;;1.53;;
18580;SDS011;9420;50.876;7.012;2023-11-22T13:52:31;3.60;;;1.90;;
18580;SDS011;9420;50.876;7.012;2023-11-22T13:54:58;2.57;;;1.50;;
18580;SDS011;9420;50.876;7.012;2023-11-22T13:57:24;2.77;;;1.30;;
18580;SDS011;9420;50.876;7.012;2023-11-22T13:59:52;3.53;;;1.47;;
18580;SDS011;9420;50.876;7.012;2023-11-22T14:02:20;2.17;;;1.27;;
18580;SDS011;9420;50.876;7.012;2023-11-22T14:04:46;2.90;;;1.23;;
18580;SDS011;9420;50.876;7.012;2023-11-22T14:07:13;3.67;;;1.70;;
18580;SDS011;9420;50.876;7.012;2023-11-22T14:09:39;3.43;;;1.53;;
18580;SDS011;9420;50.876;7.012;2023-11-22T14:12:06;2.60;;;1.97;;
18580;SDS011;9420;50.876;7.012;2023-11-22T14:14:33;2.50;;;1.30;;
18580;SDS011;9420;50.876;7.012;2023-11-22T14:17:01;2.93;;;1.23;;
18580;SDS011;9420;50.876;7.012;2023-11-22T14:19:27;3.70;;;2.20;;
18580;SDS011;9420;50.876;7.012;2023-11-22T14:21:54;3.53;;;2.17;;
18580;SDS011;9420;50.876;7.012;2023-11-22T14:24:21;6.03;;;2.33;;
18580;SDS011;9420;50.876;7.012;2023-11-22T14:26:48;2.57;;;2.03;;
18580;SDS011;9420;50.876;7.012;2023-11-22T14:29:16;2.80;;;1.93;;
18580;SDS011;9420;50.876;7.012;2023-11-22T14:31:43;3.53;;;2.20;;
18580;SDS011;9420;50.876;7.012;2023-11-22T14:34:11;4.07;;;2.30;;
18580;SDS011;9420;50.876;7.012;2023-11-22T14:36:38;9.27;;;3.20;;
18580;SDS011;9420;50.876;7.012;2023-11-22T14:39:05;4.93;;;2.50;;
18580;SDS011;9420;50.876;7.012;2023-11-22T14:41:32;4.80;;;3.77;;
18580;SDS011;9420;50.876;7.012;2023-11-22T14:44:00;5.53;;;3.43;;
18580;SDS011;9420;50.876;7.012;2023-11-22T14:46:27;6.17;;;3.37;;
18580;SDS011;9420;50.876;7.012;2023-11-22T14:48:54;10.00;;;5.57;;
18580;SDS011;9420;50.876;7.012;2023-11-22T14:51:22;10.37;;;5.77;;
18580;SDS011;9420;50.876;7.012;2023-11-22T14:53:49;12.30;;;6.10;;